createdAt,value
2023-03-21T00:01:53.566Z,84.32
2023-03-21T00:04:28.321Z,84.55
2023-03-21T00:06:56.691Z,84.53
2023-03-21T00:09:24.274Z,84.90
2023-03-21T00:11:51.131Z,84.99
2023-03-21T00:14:20.868Z,85.09
2023-03-21T00:16:52.174Z,85.12
2023-03-21T00:19:21.127Z,85.31
2023-03-21T00:22:08.760Z,85.24
2023-03-21T00:24:37.340Z,85.32
2023-03-21T00:27:33.731Z,85.32
2023-03-21T00:29:55.322Z,85.39
2023-03-21T00:32:22.765Z,85.64
2023-03-21T00:35:34.805Z,85.63
2023-03-21T00:37:37.240Z,86.00
2023-03-21T00:40:23.109Z,86.01
2023-03-21T00:42:52.531Z,86.07
2023-03-21T00:45:21.908Z,86.23
2023-03-21T00:47:49.108Z,86.46
2023-03-21T00:50:16.564Z,86.41
2023-03-21T00:52:43.863Z,86.71
2023-03-21T00:55:17.810Z,86.65
2023-03-21T00:57:47.460Z,86.76
2023-03-21T01:00:20.148Z,86.87
2023-03-21T01:03:02.546Z,87.05
2023-03-21T01:06:00.882Z,87.05
2023-03-21T01:08:35.236Z,87.06
2023-03-21T01:11:15.731Z,87.17
2023-03-21T01:13:53.749Z,87.60
2023-03-21T01:16:25.429Z,87.75
2023-03-21T01:18:53.080Z,87.92
2023-03-21T01:21:20.645Z,87.84
2023-03-21T01:23:48.072Z,88.03
2023-03-21T01:26:15.943Z,88.01
2023-03-21T01:28:45.993Z,88.05
2023-03-21T01:31:16.882Z,88.34
2023-03-21T01:33:45.292Z,88.22
2023-03-21T01:36:23.565Z,88.00
2023-03-21T01:38:54.167Z,88.14
2023-03-21T01:41:43.455Z,88.13
2023-03-21T01:44:26.472Z,88.35
2023-03-21T01:47:12.272Z,88.22
2023-03-21T01:49:52.749Z,88.41
2023-03-21T01:52:37.048Z,88.12
2023-03-21T01:55:14.678Z,88.49
2023-03-21T01:58:05.467Z,88.30
2023-03-21T02:01:10.720Z,88.31
2023-03-21T02:03:50.841Z,88.39
2023-03-21T02:07:07.347Z,87.98
2023-03-21T02:09:50.794Z,88.28
2023-03-21T02:12:21.173Z,88.40
2023-03-21T02:14:51.649Z,88.24
2023-03-21T02:18:15.396Z,88.30
2023-03-21T02:21:46.374Z,88.04
2023-03-21T02:25:01.268Z,88.17
2023-03-21T02:27:47.161Z,88.12
2023-03-21T02:30:50.787Z,88.03
2023-03-21T02:34:10.026Z,88.02
2023-03-21T02:37:07.292Z,88.14
2023-03-21T02:40:19.886Z,88.33
2023-03-21T02:43:22.546Z,88.23
2023-03-21T02:46:16.770Z,88.32
2023-03-21T02:49:01.067Z,88.36
2023-03-21T02:51:32.450Z,88.07
2023-03-21T02:54:28.268Z,88.32
2023-03-21T02:56:58.150Z,88.16
2023-03-21T02:59:29.025Z,88.32
2023-03-21T03:02:00.365Z,88.44
2023-03-21T03:04:28.728Z,88.37
2023-03-21T03:06:58.609Z,88.63
2023-03-21T03:09:49.045Z,88.63
2023-03-21T03:12:37.567Z,88.96
2023-03-21T03:15:48.066Z,88.58
2023-03-21T03:18:46.109Z,88.60
2023-03-21T03:21:47.478Z,88.53
2023-03-21T03:24:53.716Z,88.77
2023-03-21T03:27:32.442Z,88.77
2023-03-21T03:30:07.946Z,88.65
2023-03-21T03:32:48.924Z,88.52
2023-03-21T03:35:20.178Z,88.47
2023-03-21T03:37:56.514Z,88.63
2023-03-21T03:40:49.534Z,88.68
2023-03-21T03:43:43.510Z,88.72
2023-03-21T03:46:21.946Z,88.71
2023-03-21T03:49:19.333Z,88.78
2023-03-21T03:52:04.074Z,88.95
2023-03-21T03:54:44.107Z,88.75
2023-03-21T03:57:13.898Z,88.98
2023-03-21T03:59:45.238Z,89.02
2023-03-21T04:02:23.709Z,88.80
2023-03-21T04:04:53.709Z,88.94
2023-03-21T04:07:22.376Z,88.92
2023-03-21T04:09:51.920Z,88.87
2023-03-21T04:12:20.728Z,88.85
2023-03-21T04:15:23.299Z,88.93
2023-03-21T04:18:15.376Z,88.77
2023-03-21T04:21:03.623Z,88.95
2023-03-21T04:23:50.460Z,89.15
2023-03-21T04:26:39.552Z,89.05
2023-03-21T04:29:49.272Z,89.18
2023-03-21T04:32:56.808Z,89.37
2023-03-21T04:35:45.635Z,89.75
2023-03-21T04:38:33.766Z,90.04
2023-03-21T04:41:22.916Z,90.36
2023-03-21T04:44:11.872Z,90.45
2023-03-21T04:46:58.632Z,90.90
2023-03-21T04:49:45.816Z,91.26
2023-03-21T04:52:17.795Z,91.59
2023-03-21T04:54:55.337Z,91.59
2023-03-21T04:57:42.812Z,91.66
2023-03-21T05:00:29.607Z,91.78
2023-03-21T05:03:19.791Z,92.11
2023-03-21T05:06:09.544Z,92.35
2023-03-21T05:09:01.528Z,92.48
2023-03-21T05:11:49.696Z,92.45
2023-03-21T05:14:37.487Z,92.58
2023-03-21T05:17:28.472Z,92.58
2023-03-21T05:20:17.710Z,92.90
2023-03-21T05:23:04.445Z,92.84
2023-03-21T05:25:51.364Z,93.07
2023-03-21T05:28:50.040Z,92.73
2023-03-21T05:31:36.992Z,92.66
2023-03-21T05:34:29.681Z,92.70
2023-03-21T05:37:16.475Z,92.79
2023-03-21T05:40:09.728Z,92.83
2023-03-21T05:42:59.216Z,92.83
2023-03-21T05:45:50.432Z,92.62
2023-03-21T05:48:38.313Z,92.65
2023-03-21T05:51:33.953Z,92.62
2023-03-21T05:54:21.262Z,93.11
2023-03-21T05:57:09.668Z,94.46
2023-03-21T06:00:21.847Z,93.53
2023-03-21T06:03:28.236Z,91.93
2023-03-21T06:06:00.961Z,91.39
2023-03-21T06:08:34.375Z,91.03
2023-03-21T06:11:01.959Z,90.78
2023-03-21T06:13:32.919Z,90.21
2023-03-21T06:16:00.196Z,90.36
2023-03-21T06:18:28.057Z,89.99
2023-03-21T06:21:16.401Z,89.90
2023-03-21T06:23:43.572Z,89.97
2023-03-21T06:26:11.594Z,90.21
2023-03-21T06:28:39.678Z,90.11
2023-03-21T06:31:07.262Z,90.15
2023-03-21T06:33:34.640Z,90.28
2023-03-21T06:36:02.064Z,90.43
2023-03-21T06:38:29.768Z,90.17
2023-03-21T06:40:57.241Z,90.34
2023-03-21T06:43:25.634Z,90.47
2023-03-21T06:45:52.625Z,90.33
2023-03-21T06:48:21.001Z,90.40
2023-03-21T06:50:53.638Z,90.27
2023-03-21T06:53:27.147Z,90.16
2023-03-21T06:56:15.615Z,90.24
2023-03-21T06:58:43.584Z,90.11
2023-03-21T07:01:19.023Z,90.08
2023-03-21T07:03:58.955Z,90.21
2023-03-21T07:06:28.539Z,90.09
2023-03-21T07:08:56.404Z,89.96
2023-03-21T07:11:25.617Z,89.67
2023-03-21T07:13:52.969Z,89.77
2023-03-21T07:16:21.760Z,89.65
2023-03-21T07:18:48.966Z,89.58
2023-03-21T07:21:16.648Z,89.44
2023-03-21T07:23:44.343Z,89.21
2023-03-21T07:26:12.052Z,89.31
2023-03-21T07:28:39.475Z,88.89
2023-03-21T07:31:08.393Z,88.92
2023-03-21T07:33:35.383Z,89.02
2023-03-21T07:36:03.124Z,88.61
2023-03-21T07:38:31.116Z,88.63
2023-03-21T07:41:00.665Z,88.30
2023-03-21T07:43:31.200Z,88.20
2023-03-21T07:45:59.918Z,87.97
2023-03-21T07:48:28.660Z,87.70
2023-03-21T07:50:56.316Z,87.69
2023-03-21T07:53:23.393Z,87.61
2023-03-21T07:55:52.764Z,87.62
2023-03-21T07:58:19.777Z,87.64
2023-03-21T08:00:46.849Z,87.75
2023-03-21T08:03:13.783Z,87.63
2023-03-21T08:05:42.080Z,87.43
2023-03-21T08:08:09.169Z,87.38
2023-03-21T08:10:36.859Z,87.23
2023-03-21T08:13:04.497Z,87.40
2023-03-21T08:15:31.440Z,87.05
2023-03-21T08:18:00.280Z,86.95
2023-03-21T08:20:27.991Z,86.96
2023-03-21T08:22:55.359Z,87.03
2023-03-21T08:25:23.143Z,87.24
2023-03-21T08:27:51.772Z,87.29
2023-03-21T08:30:22.887Z,87.50
2023-03-21T08:32:51.018Z,87.49
2023-03-21T08:35:20.456Z,87.68
2023-03-21T08:37:48.708Z,87.51
2023-03-21T08:40:18.755Z,87.69
2023-03-21T08:42:47.059Z,87.75
2023-03-21T08:45:17.808Z,87.66
2023-03-21T08:47:46.174Z,87.73
2023-03-21T08:50:20.899Z,87.48
2023-03-21T08:52:48.980Z,87.52
2023-03-21T08:55:18.463Z,87.58
2023-03-21T08:57:46.538Z,87.48
2023-03-21T09:00:17.864Z,87.16
2023-03-21T09:02:48.500Z,87.11
2023-03-21T09:05:16.928Z,86.78
2023-03-21T09:07:45.725Z,86.33
2023-03-21T09:10:21.973Z,86.20
2023-03-21T09:12:52.609Z,86.20
2023-03-21T09:15:21.637Z,85.79
2023-03-21T09:17:52.742Z,85.87
2023-03-21T09:20:30.660Z,85.95
2023-03-21T09:22:59.700Z,85.63
2023-03-21T09:25:29.541Z,86.00
2023-03-21T09:27:58.122Z,86.12
2023-03-21T09:30:26.457Z,86.45
2023-03-21T09:32:55.692Z,86.19
2023-03-21T09:35:24.733Z,86.28
2023-03-21T09:37:51.840Z,86.17
2023-03-21T09:40:56.249Z,86.07
2023-03-21T09:43:39.661Z,85.94
2023-03-21T09:46:17.813Z,86.22
2023-03-21T09:49:07.780Z,86.21
2023-03-21T09:51:41.294Z,86.55
2023-03-21T09:54:26.987Z,86.79
2023-03-21T09:57:01.029Z,86.68
2023-03-21T09:59:41.177Z,86.87
2023-03-21T10:02:47.201Z,86.45
2023-03-21T10:05:21.017Z,86.69
2023-03-21T10:08:07.188Z,85.98
2023-03-21T10:11:03.789Z,85.58
2023-03-21T10:13:41.073Z,85.19
2023-03-21T10:16:17.314Z,84.89
2023-03-21T10:18:46.745Z,84.20
2023-03-21T10:21:47.478Z,83.52
2023-03-21T10:24:18.622Z,83.79
2023-03-21T10:26:48.084Z,83.41
2023-03-21T10:29:18.500Z,82.64
2023-03-21T10:31:47.544Z,82.52
2023-03-21T10:34:31.189Z,82.06
2023-03-21T10:37:01.838Z,82.02
2023-03-21T10:39:47.153Z,81.87
2023-03-21T10:42:29.645Z,81.28
2023-03-21T10:44:57.787Z,81.01
2023-03-21T10:47:30.175Z,81.48
2023-03-21T10:50:13.231Z,80.13
2023-03-21T10:52:51.348Z,80.08
2023-03-21T10:55:34.543Z,80.08
2023-03-21T10:58:10.884Z,80.26
2023-03-21T11:00:41.971Z,79.94
2023-03-21T11:03:43.680Z,79.51
2023-03-21T11:06:33.830Z,79.29
2023-03-21T11:09:17.805Z,79.37
2023-03-21T11:12:04.242Z,78.97
2023-03-21T11:14:41.825Z,78.91
2023-03-21T11:17:17.778Z,77.71
2023-03-21T11:20:05.484Z,77.14
2023-03-21T11:22:42.457Z,77.06
2023-03-21T11:25:39.265Z,77.05
2023-03-21T11:28:17.548Z,76.37
2023-03-21T11:30:58.000Z,74.91
2023-03-21T11:33:36.545Z,75.46
2023-03-21T11:36:18.608Z,75.19
2023-03-21T11:38:54.215Z,74.72
2023-03-21T11:41:35.080Z,74.61
2023-03-21T11:44:03.097Z,75.05
2023-03-21T11:46:39.660Z,73.90
2023-03-21T11:49:10.678Z,73.37
2023-03-21T11:51:53.123Z,73.10
2023-03-21T11:54:35.275Z,73.31
2023-03-21T11:57:12.729Z,72.16
2023-03-21T11:59:58.169Z,71.74
2023-03-21T12:03:22.266Z,71.43
2023-03-21T12:06:07.363Z,71.68
2023-03-21T12:08:54.398Z,71.35
2023-03-21T12:11:45.893Z,70.47
2023-03-21T12:14:39.645Z,70.28
2023-03-21T12:17:53.010Z,69.48
2023-03-21T12:20:59.783Z,68.68
2023-03-21T12:23:54.910Z,68.15
2023-03-21T12:26:38.489Z,68.26
2023-03-21T12:29:27.688Z,68.24
2023-03-21T12:32:20.804Z,67.54
2023-03-21T12:35:25.147Z,67.55
2023-03-21T12:38:16.826Z,67.35
2023-03-21T12:41:03.311Z,66.24
2023-03-21T12:43:50.858Z,65.75
2023-03-21T12:46:53.153Z,65.63
2023-03-21T12:49:53.435Z,65.45
2023-03-21T12:52:35.526Z,65.38
2023-03-21T12:55:16.686Z,64.79
2023-03-21T12:58:04.783Z,64.27
2023-03-21T13:00:46.115Z,62.13
2023-03-21T13:03:33.581Z,62.36
2023-03-21T13:06:09.614Z,60.68
2023-03-21T13:08:48.633Z,61.39
2023-03-21T13:11:21.764Z,62.14
2023-03-21T13:14:29.306Z,61.31
2023-03-21T13:17:02.122Z,60.68
2023-03-21T13:19:42.063Z,61.01
2023-03-21T13:22:21.117Z,60.82
2023-03-21T13:25:20.674Z,60.17
2023-03-21T13:28:18.673Z,60.09
2023-03-21T13:30:48.763Z,59.91
2023-03-21T13:33:44.589Z,59.00
2023-03-21T13:36:22.768Z,59.26
2023-03-21T13:38:53.674Z,59.05
2023-03-21T13:41:38.858Z,58.75
2023-03-21T13:44:23.494Z,57.62
2023-03-21T13:47:22.035Z,57.88
2023-03-21T13:50:33.494Z,56.81
2023-03-21T13:53:15.821Z,56.79
2023-03-21T13:55:49.113Z,57.26
2023-03-21T13:58:48.583Z,58.03
2023-03-21T14:01:26.559Z,57.98
2023-03-21T14:04:14.354Z,56.38
2023-03-21T14:07:08.036Z,56.21
2023-03-21T14:09:52.015Z,56.07
2023-03-21T14:12:30.351Z,55.98
2023-03-21T14:15:20.792Z,54.27
2023-03-21T14:17:56.473Z,53.76
2023-03-21T14:20:29.537Z,53.40
2023-03-21T14:22:56.977Z,53.78
2023-03-21T14:25:37.287Z,54.12
2023-03-21T14:28:24.542Z,54.28
2023-03-21T14:30:57.909Z,53.64
2023-03-21T14:33:40.499Z,54.56
2023-03-21T14:36:15.506Z,55.57
2023-03-21T14:38:43.389Z,55.51
2023-03-21T14:41:28.147Z,55.47
2023-03-21T14:44:27.909Z,55.65
2023-03-21T14:47:06.187Z,55.19
2023-03-21T14:49:36.244Z,55.35
2023-03-21T14:52:11.142Z,55.92
2023-03-21T14:54:44.019Z,56.55
2023-03-21T14:57:19.074Z,57.11
2023-03-21T14:59:51.913Z,57.54
2023-03-21T15:02:41.599Z,57.97
2023-03-21T15:05:26.922Z,58.41
2023-03-21T15:08:20.293Z,58.17
2023-03-21T15:11:07.228Z,58.07
2023-03-21T15:13:45.620Z,58.03
2023-03-21T15:16:15.007Z,58.19
2023-03-21T15:18:44.570Z,58.30
2023-03-21T15:21:26.511Z,58.42
2023-03-21T15:24:01.865Z,59.05
2023-03-21T15:26:31.828Z,59.18
2023-03-21T15:29:00.383Z,58.88
2023-03-21T15:31:38.664Z,59.44
2023-03-21T15:34:06.307Z,60.09
2023-03-21T15:36:43.156Z,60.45
2023-03-21T15:39:17.613Z,60.65
2023-03-21T15:42:02.288Z,60.98
2023-03-21T15:44:30.479Z,61.04
2023-03-21T15:46:57.671Z,61.13
2023-03-21T15:49:29.702Z,60.86
2023-03-21T15:52:16.934Z,60.97
2023-03-21T15:54:50.357Z,61.54
2023-03-21T15:57:33.182Z,62.09
2023-03-21T16:00:25.600Z,62.08
2023-03-21T16:03:00.700Z,62.35
2023-03-21T16:05:34.191Z,62.44
2023-03-21T16:08:20.072Z,62.26
2023-03-21T16:10:48.908Z,62.70
2023-03-21T16:13:16.627Z,62.72
2023-03-21T16:15:44.328Z,62.42
2023-03-21T16:18:21.266Z,62.65
2023-03-21T16:20:49.223Z,62.75
2023-03-21T16:23:16.379Z,63.03
2023-03-21T16:25:44.627Z,62.94
2023-03-21T16:28:17.380Z,62.81
2023-03-21T16:30:45.383Z,62.58
2023-03-21T16:33:13.685Z,62.79
2023-03-21T16:35:41.259Z,63.23
2023-03-21T16:38:12.618Z,63.16
2023-03-21T16:40:43.595Z,63.45
2023-03-21T16:43:11.620Z,63.46
2023-03-21T16:45:38.747Z,63.60
2023-03-21T16:48:08.781Z,63.77
2023-03-21T16:50:42.270Z,63.38
2023-03-21T16:53:09.378Z,63.51
2023-03-21T16:55:38.789Z,63.77
2023-03-21T16:58:06.297Z,63.83
2023-03-21T17:00:33.859Z,63.77
2023-03-21T17:03:12.049Z,64.02
2023-03-21T17:05:39.038Z,64.24
2023-03-21T17:08:06.517Z,64.65
2023-03-21T17:10:33.810Z,64.64
2023-03-21T17:13:01.670Z,64.89
2023-03-21T17:15:28.864Z,65.21
2023-03-21T17:17:55.984Z,65.93
2023-03-21T17:20:31.165Z,67.68
2023-03-21T17:22:58.740Z,69.70
2023-03-21T17:25:27.205Z,70.85
2023-03-21T17:27:54.428Z,72.16
2023-03-21T17:30:34.316Z,73.58
2023-03-21T17:33:01.696Z,74.56
2023-03-21T17:35:29.169Z,75.04
2023-03-21T17:37:58.532Z,75.64
2023-03-21T17:40:29.975Z,76.05
2023-03-21T17:43:01.383Z,76.77
2023-03-21T17:45:28.648Z,77.51
2023-03-21T17:47:56.862Z,77.82
2023-03-21T17:50:30.769Z,77.75
2023-03-21T17:52:57.915Z,77.77
2023-03-21T17:55:25.070Z,77.49
2023-03-21T17:57:52.466Z,78.01
2023-03-21T18:00:29.581Z,78.12
2023-03-21T18:02:57.413Z,77.91
2023-03-21T18:05:26.533Z,78.31
2023-03-21T18:08:09.768Z,78.02
2023-03-21T18:10:38.786Z,78.11
2023-03-21T18:13:06.651Z,77.99
2023-03-21T18:15:37.613Z,77.85
2023-03-21T18:18:05.834Z,78.00
2023-03-21T18:23:21.240Z,77.93
2023-03-21T18:25:49.802Z,78.21
2023-03-21T18:28:20.572Z,78.34
2023-03-21T18:33:40.316Z,78.82
2023-03-21T18:36:09.994Z,79.14
2023-03-21T18:38:37.477Z,79.90
2023-03-21T18:41:07.820Z,80.35
2023-03-21T18:46:23.953Z,80.44
2023-03-21T18:48:51.854Z,80.60
2023-03-21T18:51:19.312Z,80.67
2023-03-21T18:53:46.501Z,80.81
2023-03-21T18:56:54.723Z,80.73
2023-03-21T18:59:01.898Z,80.69
2023-03-21T19:01:28.950Z,80.75
2023-03-21T19:04:20.113Z,80.78
2023-03-21T19:06:47.833Z,80.83
2023-03-21T19:09:15.017Z,80.78
2023-03-21T19:11:42.716Z,80.88
2023-03-21T19:14:12.912Z,80.96
2023-03-21T19:17:14.969Z,80.89
2023-03-21T19:19:29.640Z,81.00
2023-03-21T19:21:57.209Z,81.17
2023-03-21T19:24:28.267Z,81.18
2023-03-21T19:26:55.968Z,81.13
2023-03-21T19:29:23.047Z,81.05
2023-03-21T19:31:51.254Z,80.84
2023-03-21T19:34:19.076Z,81.00
2023-03-21T19:36:51.571Z,81.19
2023-03-21T19:39:22.690Z,81.21
2023-03-21T19:41:51.666Z,81.14
2023-03-21T19:44:21.605Z,81.17
2023-03-21T19:46:51.037Z,81.14
2023-03-21T19:49:34.514Z,81.20
2023-03-21T19:52:10.315Z,80.96
2023-03-21T19:54:37.668Z,80.95
2023-03-21T19:57:04.904Z,81.11
2023-03-21T19:59:32.168Z,80.89
2023-03-21T20:02:21.574Z,80.97
2023-03-21T20:04:46.786Z,81.30
2023-03-21T20:07:13.829Z,81.32
2023-03-21T20:09:51.915Z,81.15
2023-03-21T20:12:21.893Z,80.92
2023-03-21T20:14:49.251Z,80.90
2023-03-21T20:17:16.907Z,81.12
2023-03-21T20:19:43.950Z,81.44
2023-03-21T20:22:21.943Z,81.59
2023-03-21T20:24:55.219Z,81.68
2023-03-21T20:27:25.673Z,82.21
2023-03-21T20:30:09.048Z,82.31
2023-03-21T20:32:38.466Z,82.42
2023-03-21T20:35:19.205Z,82.65
2023-03-21T20:37:49.799Z,82.71
2023-03-21T20:40:18.911Z,82.76
2023-03-21T20:42:48.660Z,82.74
2023-03-21T20:45:17.295Z,82.87
2023-03-21T20:47:44.376Z,82.62
2023-03-21T20:50:14.052Z,82.70
2023-03-21T20:53:06.531Z,83.03
2023-03-21T20:55:29.550Z,83.26
2023-03-21T20:57:56.558Z,83.34
2023-03-21T21:00:24.621Z,83.30
2023-03-21T21:02:51.913Z,83.28
2023-03-21T21:05:35.487Z,83.04
2023-03-21T21:08:03.608Z,82.92
2023-03-21T21:10:33.677Z,82.90
2023-03-21T21:13:01.341Z,82.79
2023-03-21T21:15:28.815Z,82.79
2023-03-21T21:18:06.165Z,82.77
2023-03-21T21:20:35.158Z,82.88
2023-03-21T21:23:02.624Z,82.59
2023-03-21T21:25:34.181Z,82.28
2023-03-21T21:28:02.130Z,82.08
2023-03-21T21:30:32.479Z,82.19
2023-03-21T21:33:00.842Z,82.15
2023-03-21T21:35:28.174Z,82.38
2023-03-21T21:37:55.197Z,82.66
2023-03-21T21:40:23.425Z,82.94
2023-03-21T21:42:50.825Z,82.88
2023-03-21T21:45:18.975Z,83.18
2023-03-21T21:47:46.490Z,83.19
2023-03-21T21:50:14.423Z,83.30
2023-03-21T21:52:43.828Z,83.47
2023-03-21T21:55:13.081Z,83.73
2023-03-21T21:57:40.546Z,83.85
2023-03-21T22:00:13.562Z,84.05
2023-03-21T22:02:42.638Z,84.23
2023-03-21T22:05:10.545Z,84.08
2023-03-21T22:07:38.088Z,84.37
2023-03-21T22:10:06.848Z,84.71
2023-03-21T22:12:34.365Z,84.79
2023-03-21T22:15:02.060Z,85.10
2023-03-21T22:17:29.140Z,85.01
2023-03-21T22:20:05.478Z,85.01
2023-03-21T22:22:37.610Z,85.04
2023-03-21T22:25:07.998Z,84.80
2023-03-21T22:27:36.061Z,84.61
2023-03-21T22:30:05.256Z,84.70
2023-03-21T22:32:36.802Z,84.79
2023-03-21T22:35:06.942Z,84.96
2023-03-21T22:37:36.871Z,84.89
2023-03-21T22:40:08.801Z,84.82
2023-03-21T22:42:37.539Z,84.78
2023-03-21T22:45:06.135Z,84.87
2023-03-21T22:47:33.745Z,84.81
2023-03-21T22:50:00.856Z,84.91
2023-03-21T22:52:28.189Z,84.65
2023-03-21T22:54:55.480Z,84.98
2023-03-21T22:57:22.740Z,84.92
2023-03-21T22:59:49.855Z,84.80
2023-03-21T23:02:17.232Z,84.56
2023-03-21T23:04:44.451Z,84.48
2023-03-21T23:07:11.582Z,84.20
2023-03-21T23:09:38.588Z,84.22
2023-03-21T23:12:05.891Z,83.94
2023-03-21T23:14:32.893Z,83.94
2023-03-21T23:17:00.172Z,84.06
2023-03-21T23:19:28.809Z,83.96
2023-03-21T23:21:56.710Z,83.86
2023-03-21T23:24:24.193Z,83.73
2023-03-21T23:26:51.379Z,83.87
2023-03-21T23:29:18.640Z,83.95
2023-03-21T23:31:45.733Z,83.98
2023-03-21T23:34:13.792Z,84.34
2023-03-21T23:36:41.104Z,84.38
2023-03-21T23:39:09.208Z,84.40
2023-03-21T23:41:36.308Z,84.72
2023-03-21T23:44:03.829Z,84.97
2023-03-21T23:46:31.200Z,85.30
2023-03-21T23:48:58.304Z,85.36
2023-03-21T23:51:25.427Z,85.43
2023-03-21T23:53:53.366Z,85.70
2023-03-21T23:56:24.060Z,85.74
2023-03-21T23:58:51.715Z,85.98
